createdAt,value
2018-09-08T00:00:10.956Z,29.27
2018-09-08T00:02:40.853Z,28.30
2018-09-08T00:05:10.583Z,28.97
2018-09-08T00:07:40.340Z,27.87
2018-09-08T00:10:11.375Z,28.47
2018-09-08T00:12:41.080Z,25.77
2018-09-08T00:15:15.763Z,31.80
2018-09-08T00:17:50.361Z,28.27
2018-09-08T00:20:25.055Z,32.77
2018-09-08T00:22:59.798Z,32.67
2018-09-08T00:25:34.618Z,29.33
2018-09-08T00:28:15.946Z,31.53
2018-09-08T00:30:45.799Z,30.37
2018-09-08T00:33:15.505Z,28.70
2018-09-08T00:35:45.346Z,28.63
2018-09-08T00:38:15.352Z,29.97
2018-09-08T00:40:44.943Z,25.93
2018-09-08T00:43:14.543Z,30.23
2018-09-08T00:45:44.244Z,32.50
2018-09-08T00:48:13.900Z,25.90
2018-09-08T00:50:43.548Z,31.42
2018-09-08T00:53:13.164Z,29.00
2018-09-08T00:55:42.739Z,27.53
2018-09-08T00:58:12.364Z,25.53
2018-09-08T01:00:42.124Z,28.00
2018-09-08T01:03:12.408Z,30.90
2018-09-08T01:05:42.172Z,31.60
2018-09-08T01:08:12.180Z,29.30
2018-09-08T01:10:42.075Z,29.13
2018-09-08T01:13:11.758Z,32.45
2018-09-08T01:15:42.070Z,32.00
2018-09-08T01:18:11.940Z,31.83
2018-09-08T01:20:41.633Z,29.57
2018-09-08T01:23:11.362Z,33.83
2018-09-08T01:25:41.118Z,34.27
2018-09-08T01:28:10.894Z,30.23
2018-09-08T01:30:40.744Z,34.43
2018-09-08T01:33:10.447Z,34.97
2018-09-08T01:35:40.026Z,32.63
2018-09-08T01:38:09.604Z,37.17
2018-09-08T01:40:39.389Z,41.67
2018-09-08T01:43:09.244Z,38.43
2018-09-08T01:45:38.842Z,38.77
2018-09-08T01:48:08.584Z,42.43
2018-09-08T01:50:38.286Z,35.83
2018-09-08T01:53:08.108Z,35.60
2018-09-08T01:55:37.909Z,35.00
2018-09-08T01:58:07.571Z,31.73
2018-09-08T02:00:37.227Z,29.03
2018-09-08T02:03:07.343Z,29.50
2018-09-08T02:05:37.481Z,29.17
2018-09-08T02:08:07.241Z,30.63
2018-09-08T02:10:36.932Z,30.37
2018-09-08T02:13:06.622Z,30.07
2018-09-08T02:15:36.462Z,30.00
2018-09-08T02:18:06.090Z,28.93
2018-09-08T02:20:35.829Z,28.67
2018-09-08T02:23:05.432Z,30.07
2018-09-08T02:25:35.019Z,27.47
2018-09-08T02:28:04.738Z,30.60
2018-09-08T02:30:35.443Z,29.43
2018-09-08T02:33:05.360Z,27.13
2018-09-08T02:35:34.922Z,32.50
2018-09-08T02:38:04.928Z,28.83
2018-09-08T02:40:34.634Z,29.50
2018-09-08T02:43:04.519Z,28.13
2018-09-08T02:45:34.438Z,27.03
2018-09-08T02:48:04.054Z,29.00
2018-09-08T02:50:37.193Z,26.80
2018-09-08T02:53:05.932Z,32.40
2018-09-08T02:55:34.556Z,29.80
2018-09-08T02:58:02.529Z,28.47
2018-09-08T03:00:30.968Z,32.05
2018-09-08T03:02:58.821Z,28.43
2018-09-08T03:05:26.767Z,26.67
2018-09-08T03:07:54.686Z,27.97
2018-09-08T03:10:22.987Z,25.97
2018-09-08T03:12:50.978Z,27.30
2018-09-08T03:15:18.887Z,26.30
2018-09-08T03:17:46.844Z,36.60
2018-09-08T03:20:14.806Z,28.77
2018-09-08T03:22:42.758Z,31.30
2018-09-08T03:25:10.733Z,26.70
2018-09-08T03:27:38.695Z,32.30
2018-09-08T03:30:06.707Z,31.48
2018-09-08T03:32:34.698Z,35.10
2018-09-08T03:35:02.678Z,28.87
2018-09-08T03:37:30.658Z,33.17
2018-09-08T03:39:58.523Z,30.23
2018-09-08T03:42:26.363Z,32.10
2018-09-08T03:44:54.388Z,29.43
2018-09-08T03:47:22.305Z,34.87
2018-09-08T03:54:39.265Z,35.90
2018-09-08T03:57:07.263Z,37.67
2018-09-08T03:59:35.177Z,32.67
2018-09-08T04:02:03.246Z,29.95
2018-09-08T04:04:32.926Z,32.77
2018-09-08T06:09:02.172Z,21.50
2018-09-08T06:11:32.141Z,21.27
2018-09-08T06:14:02.342Z,25.73
2018-09-08T06:16:32.710Z,31.87
2018-09-08T06:19:04.747Z,24.80
2018-09-08T06:21:44.980Z,25.90
2018-09-08T06:24:26.209Z,25.57
2018-09-08T06:26:57.494Z,28.43
2018-09-08T06:29:28.078Z,30.20
2018-09-08T06:32:08.770Z,25.60
2018-09-08T06:34:39.465Z,24.47
2018-09-08T06:37:09.864Z,24.93
2018-09-08T06:39:40.845Z,26.77
2018-09-08T06:42:12.086Z,26.13
2018-09-08T06:44:53.466Z,24.98
2018-09-08T06:47:25.268Z,22.52
2018-09-08T06:49:56.973Z,19.83
2018-09-08T06:52:29.206Z,23.00
2018-09-08T06:55:02.584Z,25.23
2018-09-08T06:57:34.004Z,22.93
2018-09-08T07:00:05.107Z,19.47
2018-09-08T07:02:37.334Z,21.03
2018-09-08T07:05:07.578Z,26.67
2018-09-08T07:07:37.443Z,22.73
2018-09-08T07:10:07.114Z,30.93
2018-09-08T07:12:37.005Z,25.60
2018-09-08T07:15:07.287Z,31.53
2018-09-08T07:17:37.559Z,29.00
2018-09-08T07:20:19.719Z,29.93
2018-09-08T07:22:51.726Z,29.83
2018-09-08T07:25:24.183Z,25.87
2018-09-08T07:27:54.737Z,25.10
2018-09-08T07:30:26.027Z,24.18
2018-09-08T07:32:57.328Z,22.70
2018-09-08T07:35:28.639Z,21.60
2018-09-08T07:38:00.455Z,24.87
2018-09-08T07:40:30.147Z,22.82
2018-09-08T07:42:59.960Z,25.70
2018-09-08T07:48:05.310Z,21.20
2018-09-08T07:50:37.164Z,21.73
2018-09-08T07:53:07.182Z,30.73
2018-09-08T07:55:37.933Z,16.80
2018-09-08T07:58:08.384Z,18.60
2018-09-08T08:00:39.261Z,16.93
2018-09-08T08:03:09.658Z,18.48
2018-09-08T08:05:39.784Z,20.83
2018-09-08T08:08:09.824Z,19.83
2018-09-08T08:10:39.551Z,17.10
2018-09-08T08:13:11.133Z,17.77
2018-09-08T08:15:41.168Z,20.77
2018-09-08T08:18:12.577Z,19.80
2018-09-08T08:20:43.891Z,18.87
2018-09-08T08:23:13.830Z,19.03
2018-09-08T08:25:45.141Z,23.37
2018-09-08T08:28:15.242Z,18.37
2018-09-08T08:30:47.502Z,24.27
2018-09-08T08:33:18.041Z,25.93
2018-09-08T08:35:48.121Z,18.87
2018-09-08T08:38:18.048Z,16.53
2018-09-08T08:40:48.593Z,20.77
2018-09-08T08:43:18.605Z,23.83
2018-09-08T08:45:48.568Z,16.87
2018-09-08T08:48:18.379Z,18.53
2018-09-08T08:52:02.539Z,17.33
2018-09-08T08:54:43.319Z,18.37
2018-09-08T08:57:13.172Z,19.43
2018-09-08T08:59:43.528Z,16.60
2018-09-08T09:02:13.156Z,16.77
2018-09-08T09:04:43.022Z,18.43
2018-09-08T09:07:14.234Z,18.87
2018-09-08T09:09:44.730Z,21.13
2018-09-08T09:12:14.509Z,43.17
2018-09-08T09:14:44.398Z,21.53
2018-09-08T09:17:14.134Z,22.13
2018-09-08T09:19:54.459Z,23.83
2018-09-08T09:22:34.677Z,48.13
2018-09-08T09:25:06.587Z,29.47
2018-09-08T09:27:37.897Z,16.00
2018-09-08T09:30:08.854Z,23.60
2018-09-08T09:32:38.699Z,29.77
2018-09-08T09:35:21.942Z,18.77
2018-09-08T09:37:51.756Z,28.60
2018-09-08T09:40:22.437Z,20.73
2018-09-08T09:42:52.531Z,15.93
2018-09-08T09:45:22.256Z,17.47
2018-09-08T09:47:52.389Z,15.60
2018-09-08T09:50:22.246Z,17.67
2018-09-08T09:52:52.044Z,23.83
2018-09-08T09:55:22.175Z,17.23
2018-09-08T09:57:52.163Z,19.00
2018-09-08T10:00:26.975Z,19.50
2018-09-08T10:03:01.881Z,22.00
2018-09-08T10:05:31.567Z,27.73
2018-09-08T10:08:01.498Z,24.92
2018-09-08T10:10:31.019Z,19.60
2018-09-08T10:13:00.628Z,16.87
2018-09-08T10:15:30.413Z,18.60
2018-09-08T10:18:00.102Z,17.87
2018-09-08T10:20:29.858Z,19.83
2018-09-08T10:22:59.995Z,17.20
2018-09-08T10:25:30.187Z,16.67
2018-09-08T10:27:59.875Z,18.47
2018-09-08T10:30:32.091Z,21.30
2018-09-08T10:33:01.818Z,18.23
2018-09-08T10:35:31.615Z,18.47
2018-09-08T10:38:01.498Z,16.10
2018-09-08T10:40:31.463Z,18.13
2018-09-08T10:43:01.181Z,28.43
2018-09-08T10:45:31.465Z,23.70
2018-09-08T10:48:01.762Z,12.90
2018-09-08T10:50:31.507Z,15.83
2018-09-08T10:53:01.466Z,19.47
2018-09-08T10:55:31.507Z,12.00
2018-09-08T10:58:01.214Z,12.87
2018-09-08T11:00:31.089Z,10.57
2018-09-08T11:03:00.993Z,10.23
2018-09-08T11:05:33.067Z,10.83
2018-09-08T11:08:03.760Z,13.73
2018-09-08T11:10:34.066Z,10.67
2018-09-08T11:13:06.127Z,12.80
2018-09-08T11:15:37.351Z,9.87
2018-09-08T11:18:14.794Z,11.97
2018-09-08T11:20:47.069Z,12.00
2018-09-08T11:23:17.461Z,10.10
2018-09-08T11:25:47.162Z,11.77
2018-09-08T11:28:17.321Z,16.27
2018-09-08T11:30:54.172Z,11.37
2018-09-08T11:33:25.139Z,15.87
2018-09-08T11:36:00.556Z,13.67
2018-09-08T11:38:31.442Z,11.97
2018-09-08T11:41:01.888Z,26.93
2018-09-08T11:43:32.154Z,10.87
2018-09-08T11:46:03.768Z,9.70
2018-09-08T11:48:33.893Z,10.90
2018-09-08T11:51:03.847Z,12.53
2018-09-08T11:53:34.098Z,12.83
2018-09-08T11:56:04.029Z,27.17
2018-09-08T11:58:33.877Z,21.43
2018-09-08T12:01:04.013Z,17.80
2018-09-08T12:03:33.700Z,14.70
2018-09-08T12:06:03.400Z,16.30
2018-09-08T12:08:33.190Z,18.97
2018-09-08T12:11:03.956Z,14.27
2018-09-08T12:13:34.043Z,18.93
2018-09-08T12:16:03.961Z,21.37
2018-09-08T12:18:33.614Z,16.57
2018-09-08T12:21:03.460Z,20.47
2018-09-08T12:23:33.333Z,19.80
2018-09-08T12:26:03.226Z,32.87
2018-09-08T12:28:33.094Z,43.50
2018-09-08T12:31:03.088Z,44.70
2018-09-08T12:33:32.827Z,32.77
2018-09-08T12:36:02.768Z,21.53
2018-09-08T12:38:32.396Z,14.27
2018-09-08T12:41:02.186Z,16.57
2018-09-08T12:43:32.075Z,15.97
2018-09-08T12:46:01.828Z,14.73
2018-09-08T12:48:31.465Z,12.47
2018-09-08T12:51:01.218Z,20.43
2018-09-08T12:53:31.058Z,20.30
2018-09-08T12:56:00.904Z,13.47
2018-09-08T12:58:31.255Z,15.97
2018-09-08T13:01:01.011Z,25.50
2018-09-08T13:03:30.779Z,13.50
2018-09-08T13:06:00.586Z,15.63
2018-09-08T13:08:30.400Z,21.77
2018-09-08T13:11:00.147Z,13.73
2018-09-08T13:13:29.894Z,18.17
2018-09-08T13:15:59.603Z,19.03
2018-09-08T13:18:29.263Z,16.10
2018-09-08T13:20:59.300Z,17.10
2018-09-08T13:23:29.171Z,17.67
2018-09-08T13:25:58.958Z,13.87
2018-09-08T13:28:29.178Z,12.30
2018-09-08T13:30:59.008Z,16.23
2018-09-08T13:33:29.032Z,16.03
2018-09-08T13:35:58.811Z,14.77
2018-09-08T13:38:28.527Z,14.17
2018-09-08T13:40:59.073Z,20.70
2018-09-08T13:43:29.708Z,16.87
2018-09-08T13:45:59.569Z,18.07
2018-09-08T13:48:29.739Z,15.77
2018-09-08T13:50:59.365Z,18.57
2018-09-08T13:53:29.678Z,21.20
2018-09-08T13:55:59.537Z,15.47
2018-09-08T13:58:29.381Z,17.33
2018-09-08T14:00:59.088Z,19.13
2018-09-08T14:03:28.791Z,17.03
2018-09-08T14:05:58.546Z,14.13
2018-09-08T14:08:28.871Z,23.23
2018-09-08T14:10:58.547Z,29.07
2018-09-08T14:13:28.268Z,38.60
2018-09-08T14:15:57.958Z,44.05
2018-09-08T14:18:27.751Z,36.07
2018-09-08T14:20:57.465Z,22.70
2018-09-08T14:23:27.715Z,21.00
2018-09-08T14:25:57.556Z,26.00
2018-09-08T14:28:27.326Z,43.30
2018-09-08T14:30:56.999Z,54.53
2018-09-08T14:33:26.876Z,58.30
2018-09-08T14:35:56.795Z,65.10
2018-09-08T14:38:26.729Z,38.20
2018-09-08T14:40:56.649Z,18.00
2018-09-08T14:43:26.627Z,14.40
2018-09-08T14:45:56.572Z,17.37
2018-09-08T14:48:26.763Z,17.83
2018-09-08T14:50:56.469Z,27.60
2018-09-08T14:53:26.074Z,18.83
2018-09-08T14:55:55.599Z,19.50
2018-09-08T14:58:25.500Z,20.77
2018-09-08T15:00:55.366Z,17.47
2018-09-08T15:03:25.079Z,20.73
2018-09-08T15:05:55.142Z,35.37
2018-09-08T15:08:24.967Z,26.55
2018-09-08T15:10:54.657Z,20.70
2018-09-08T15:13:24.515Z,19.67
2018-09-08T15:15:54.384Z,23.07
2018-09-08T15:18:24.154Z,19.97
2018-09-08T15:20:53.860Z,19.70
2018-09-08T15:23:23.775Z,21.20
2018-09-08T15:25:53.713Z,17.30
2018-09-08T15:28:28.498Z,32.37
2018-09-08T15:31:00.947Z,19.73
2018-09-08T15:33:33.900Z,17.57
2018-09-08T15:36:06.636Z,23.83
2018-09-08T15:38:41.939Z,21.90
2018-09-08T15:41:13.661Z,21.60
2018-09-08T15:43:44.742Z,24.87
2018-09-08T15:46:15.699Z,31.17
2018-09-08T15:48:46.413Z,27.80
2018-09-08T15:51:17.200Z,29.20
2018-09-08T15:53:47.184Z,29.43
2018-09-08T15:56:16.939Z,19.13
2018-09-08T15:58:46.998Z,18.03
2018-09-08T16:01:18.674Z,15.20
2018-09-08T16:03:50.076Z,17.20
2018-09-08T16:06:20.801Z,15.73
2018-09-08T16:08:51.205Z,24.27
2018-09-08T16:11:22.595Z,21.40
2018-09-08T16:13:53.075Z,25.93
2018-09-08T16:16:23.130Z,30.33
2018-09-08T16:18:53.118Z,36.10
2018-09-08T16:21:23.013Z,37.23
2018-09-08T16:23:52.824Z,23.70
2018-09-08T16:26:22.881Z,23.70
2018-09-08T16:28:52.772Z,23.90
2018-09-08T16:31:22.323Z,25.70
2018-09-08T16:33:52.158Z,21.00
2018-09-08T16:36:21.785Z,25.57
2018-09-08T16:38:51.675Z,47.87
2018-09-08T16:41:21.299Z,71.87
2018-09-08T16:43:51.404Z,68.80
2018-09-08T16:46:21.227Z,61.97
2018-09-08T16:48:51.379Z,70.73
2018-09-08T16:51:22.125Z,60.63
2018-09-08T16:53:53.319Z,44.27
2018-09-08T16:56:28.549Z,21.10
2018-09-08T16:58:58.946Z,36.87
2018-09-08T17:01:29.299Z,31.53
2018-09-08T17:03:59.308Z,41.70
2018-09-08T17:06:30.201Z,37.65
2018-09-08T17:09:00.524Z,30.70
2018-09-08T17:11:30.700Z,25.13
2018-09-08T17:14:00.933Z,37.60
2018-09-08T17:16:30.793Z,28.43
2018-09-08T17:19:00.779Z,40.70
2018-09-08T17:21:33.404Z,30.97
2018-09-08T17:24:03.197Z,26.60
2018-09-08T17:26:33.148Z,45.93
2018-09-08T17:29:02.892Z,33.63
2018-09-08T17:31:32.466Z,24.73
2018-09-08T17:34:02.232Z,25.73
2018-09-08T17:36:31.917Z,22.77
2018-09-08T17:39:01.713Z,26.73
2018-09-08T17:41:31.567Z,30.83
2018-09-08T17:44:01.597Z,29.40
2018-09-08T17:46:31.347Z,28.90
2018-09-08T17:49:01.625Z,35.73
2018-09-08T17:51:31.869Z,27.13
2018-09-08T17:54:02.116Z,24.00
2018-09-08T17:56:33.159Z,22.65
2018-09-08T17:59:03.280Z,18.70
2018-09-08T18:01:33.169Z,17.47
2018-09-08T18:04:03.048Z,19.27
2018-09-08T18:06:41.733Z,15.87
2018-09-08T18:09:23.290Z,16.40
2018-09-08T18:11:55.888Z,18.43
2018-09-08T18:14:27.609Z,20.37
2018-09-08T18:16:59.922Z,27.13
2018-09-08T18:19:32.392Z,14.80
2018-09-08T18:22:04.504Z,15.97
2018-09-08T18:24:37.115Z,17.87
2018-09-08T18:27:09.406Z,15.70
2018-09-08T18:29:40.624Z,17.47
2018-09-08T18:32:13.054Z,14.60
2018-09-08T18:34:44.471Z,15.20
2018-09-08T18:37:16.558Z,18.73
2018-09-08T18:39:48.012Z,15.10
2018-09-08T18:42:20.221Z,17.57
2018-09-08T18:44:51.657Z,15.83
2018-09-08T18:47:24.274Z,16.95
2018-09-08T18:49:56.926Z,18.37
2018-09-08T18:52:30.008Z,16.97
2018-09-08T18:59:57.753Z,18.13
2018-09-08T19:02:29.079Z,17.97
2018-09-08T19:04:59.492Z,12.13
2018-09-08T19:07:29.985Z,17.23
2018-09-08T19:10:09.927Z,20.03
2018-09-08T19:12:39.617Z,24.33
2018-09-08T19:15:14.415Z,34.70
2018-09-08T19:17:44.371Z,33.87
2018-09-08T19:20:47.504Z,32.13
2018-09-08T19:23:17.349Z,20.77
2018-09-08T19:25:52.593Z,16.83
2018-09-08T19:28:23.002Z,18.27
2018-09-08T19:30:53.924Z,18.67
2018-09-08T19:33:24.808Z,19.13
2018-09-08T19:35:54.653Z,16.93
2018-09-08T19:38:25.476Z,18.07
2018-09-08T19:40:56.464Z,24.23
2018-09-08T19:43:27.777Z,20.30
2018-09-08T19:45:58.745Z,19.53
2018-09-08T19:48:38.748Z,18.73
2018-09-08T19:51:08.680Z,15.93
2018-09-08T19:53:44.555Z,17.23
2018-09-08T19:56:17.003Z,18.83
2018-09-08T19:58:51.611Z,19.30
2018-09-08T20:01:21.684Z,15.10
2018-09-08T20:03:51.497Z,19.00
2018-09-08T20:06:26.778Z,15.50
2018-09-08T20:08:56.986Z,24.53
2018-09-08T20:11:30.249Z,15.43
2018-09-08T20:14:00.192Z,16.47
2018-09-08T20:16:31.635Z,14.97
2018-09-08T20:19:01.320Z,23.00
2018-09-08T20:21:31.287Z,19.47
2018-09-08T20:24:01.285Z,16.27
2018-09-08T20:26:31.609Z,20.00
2018-09-08T20:29:01.401Z,18.90
2018-09-08T20:31:31.554Z,19.80
2018-09-08T20:34:01.127Z,17.13
2018-09-08T20:36:30.961Z,18.77
2018-09-08T20:39:01.100Z,19.57
2018-09-08T20:41:30.840Z,20.00
2018-09-08T20:44:01.242Z,18.07
2018-09-08T20:46:31.253Z,19.20
2018-09-08T20:49:01.355Z,19.40
2018-09-08T20:51:31.449Z,18.80
2018-09-08T20:54:01.155Z,19.70
2018-09-08T20:56:31.036Z,18.17
2018-09-08T20:59:00.713Z,19.73
2018-09-08T21:01:30.643Z,23.43
2018-09-08T21:04:00.426Z,22.73
2018-09-08T21:06:30.130Z,23.83
2018-09-08T21:09:00.939Z,20.37
2018-09-08T21:11:30.723Z,22.10
2018-09-08T21:14:00.497Z,19.53
2018-09-08T21:16:30.161Z,22.93
2018-09-08T21:18:59.934Z,21.27
2018-09-08T21:21:29.866Z,29.90
2018-09-08T21:23:59.950Z,22.53
2018-09-08T21:26:29.843Z,20.30
2018-09-08T21:28:59.844Z,18.93
2018-09-08T21:31:29.497Z,19.37
2018-09-08T21:33:59.365Z,24.97
2018-09-08T21:36:29.304Z,19.93
2018-09-08T21:38:58.918Z,20.43
2018-09-08T21:41:28.787Z,22.03
2018-09-08T21:43:58.614Z,20.63
2018-09-08T21:46:28.409Z,22.57
2018-09-08T21:48:58.371Z,20.03
2018-09-08T21:51:28.323Z,23.00
2018-09-08T21:54:04.468Z,24.03
2018-09-08T21:56:34.042Z,23.03
2018-09-08T21:59:03.867Z,30.43
2018-09-08T22:01:33.624Z,19.77
2018-09-08T22:04:03.438Z,24.13
2018-09-08T22:06:33.183Z,22.33
2018-09-08T22:09:02.908Z,27.50
2018-09-08T22:11:39.232Z,21.77
2018-09-08T22:14:09.089Z,21.63
2018-09-08T22:16:38.754Z,19.90
2018-09-08T22:19:08.529Z,28.75
2018-09-08T22:21:38.452Z,22.20
2018-09-08T22:24:08.325Z,23.57
2018-09-08T22:26:38.270Z,23.17
2018-09-08T22:29:08.156Z,23.55
2018-09-08T22:31:37.870Z,21.87
2018-09-08T22:34:07.548Z,24.10
2018-09-08T22:36:37.493Z,25.27
2018-09-08T22:39:09.203Z,22.80
2018-09-08T22:41:39.034Z,22.23
2018-09-08T22:44:08.665Z,23.43
2018-09-08T22:46:38.717Z,23.87
2018-09-08T22:49:08.555Z,26.40
2018-09-08T22:51:38.467Z,24.25
2018-09-08T22:54:08.784Z,23.83
2018-09-08T22:56:38.458Z,22.13
2018-09-08T22:59:08.443Z,20.97
2018-09-08T23:01:38.180Z,20.20
2018-09-08T23:04:08.213Z,21.77
2018-09-08T23:06:37.854Z,20.17
2018-09-08T23:09:08.535Z,23.57
2018-09-08T23:11:38.178Z,23.53
2018-09-08T23:14:08.399Z,23.53
2018-09-08T23:16:38.132Z,25.07
2018-09-08T23:19:08.151Z,30.60
2018-09-08T23:21:37.907Z,26.37
2018-09-08T23:24:07.693Z,28.37
2018-09-08T23:26:37.443Z,21.87
2018-09-08T23:29:07.259Z,23.43
2018-09-08T23:31:37.050Z,30.60
2018-09-08T23:34:06.851Z,26.27
2018-09-08T23:36:36.683Z,24.03
2018-09-08T23:39:07.789Z,24.20
2018-09-08T23:41:37.699Z,23.60
2018-09-08T23:44:07.466Z,29.37
2018-09-08T23:46:37.547Z,22.97
2018-09-08T23:49:07.806Z,26.30
2018-09-08T23:51:37.924Z,23.23
2018-09-08T23:54:07.156Z,24.03
2018-09-08T23:56:36.840Z,26.80
2018-09-08T23:59:06.780Z,23.13
